Time;durP1;ratioP1;P1;durP2;ratioP2;P2;SDS_P1;SDS_P2;PMS_P1;PMS_P2;Temp;Humidity;BMP_temperature;BMP_pressure;BME280_temperature;BME280_humidity;BME280_pressure;Samples;Min_cycle;Max_cycle;Signal;HPM_P1;HPM_P2
2022/07/01 00:00:13;;;;;;;2.67;1.60;;;17.40;99.90;;;;;;5096689;28;20494;-57
2022/07/01 00:02:41;;;;;;;3.37;1.97;;;17.50;99.90;;;;;;5096589;28;20485;-57
2022/07/01 00:05:09;;;;;;;2.30;1.80;;;18.00;99.90;;;;;;5096192;28;20930;-57
2022/07/01 00:07:36;;;;;;;4.53;3.00;;;18.10;99.90;;;;;;5096745;28;20515;-57
2022/07/01 00:10:03;;;;;;;3.87;2.20;;;17.70;99.90;;;;;;5096282;28;20474;-57
2022/07/01 00:12:31;;;;;;;3.27;1.90;;;17.50;99.90;;;;;;5096519;28;20583;-57
2022/07/01 00:14:59;;;;;;;3.60;2.00;;;17.50;99.90;;;;;;5096028;28;20481;-58
2022/07/01 00:17:27;;;;;;;2.80;1.93;;;17.40;99.90;;;;;;5096493;28;20534;-58
2022/07/01 00:19:54;;;;;;;2.63;2.10;;;17.20;99.90;;;;;;5096279;28;20521;-57
2022/07/01 00:22:21;;;;;;;1.50;1.40;;;17.10;99.90;;;;;;5096252;28;20531;-57
2022/07/01 00:24:48;;;;;;;7.03;1.87;;;17.10;99.90;;;;;;5096375;28;20542;-58
2022/07/01 00:27:16;;;;;;;3.00;1.50;;;17.30;99.90;;;;;;5096169;28;20476;-57
2022/07/01 00:29:43;;;;;;;4.50;1.83;;;17.50;99.90;;;;;;5095806;28;20490;-57
2022/07/01 00:32:11;;;;;;;4.90;1.70;;;17.40;99.90;;;;;;5095898;28;20781;-57
2022/07/01 00:34:39;;;;;;;2.53;1.40;;;17.30;99.90;;;;;;5095972;28;20531;-57
2022/07/01 00:37:06;;;;;;;6.00;2.00;;;17.30;99.90;;;;;;5096000;28;20443;-57
2022/07/01 00:39:35;;;;;;;3.03;1.60;;;17.40;99.90;;;;;;5095735;28;20493;-57
2022/07/01 00:42:03;;;;;;;1.90;1.30;;;17.20;99.90;;;;;;5095546;28;20540;-57
2022/07/01 00:44:31;;;;;;;1.90;1.50;;;17.20;99.90;;;;;;5095602;28;20427;-56
2022/07/01 00:47:02;;;;;;;4.77;1.60;;;17.10;99.90;;;;;;5095633;28;20546;-56
2022/07/01 00:49:31;;;;;;;2.57;1.40;;;16.80;99.90;;;;;;5095567;28;20964;-56
2022/07/01 00:51:58;;;;;;;2.00;1.40;;;16.80;99.90;;;;;;5095405;28;20443;-56
2022/07/01 00:54:27;;;;;;;2.33;1.30;;;16.70;99.90;;;;;;5095624;28;20447;-57
2022/07/01 00:56:54;;;;;;;2.50;1.63;;;16.60;99.90;;;;;;5095712;28;20453;-57
2022/07/01 00:59:22;;;;;;;2.23;1.57;;;16.50;99.90;;;;;;5095526;28;20474;-57
2022/07/01 01:01:49;;;;;;;2.17;1.60;;;16.70;99.90;;;;;;5095445;28;20478;-57
2022/07/01 01:04:16;;;;;;;2.90;1.80;;;16.70;99.90;;;;;;5095590;28;20447;-57
2022/07/01 01:06:44;;;;;;;2.80;1.50;;;16.90;99.90;;;;;;5095161;28;20451;-57
2022/07/01 01:09:12;;;;;;;4.67;1.70;;;17.60;99.90;;;;;;5095025;28;21032;-57
2022/07/01 01:11:39;;;;;;;1.83;1.30;;;17.40;99.90;;;;;;5095344;28;20439;-57
2022/07/01 01:14:07;;;;;;;6.30;1.40;;;17.40;99.90;;;;;;5095108;28;20475;-57
2022/07/01 01:16:35;;;;;;;1.90;1.53;;;17.40;99.90;;;;;;5094974;28;20519;-56
2022/07/01 01:19:05;;;;;;;1.50;1.30;;;17.00;99.90;;;;;;5094984;28;20451;-56
2022/07/01 01:21:34;;;;;;;2.17;1.57;;;16.70;99.90;;;;;;5095764;28;20507;-57
2022/07/01 01:24:02;;;;;;;3.57;1.67;;;16.90;99.90;;;;;;5095096;28;20757;-57
2022/07/01 01:26:29;;;;;;;2.30;1.40;;;17.10;99.90;;;;;;5095000;28;20443;-58
2022/07/01 01:28:56;;;;;;;1.60;1.30;;;17.40;99.90;;;;;;5094713;28;20538;-56
2022/07/01 01:31:30;;;;;;;2.13;1.50;;;17.10;99.90;;;;;;5094916;28;20443;-56
2022/07/01 01:33:57;;;;;;;4.80;1.63;;;17.10;99.90;;;;;;5094545;28;20496;-56
2022/07/01 01:36:24;;;;;;;2.13;1.67;;;17.30;99.90;;;;;;5094942;28;20451;-57
2022/07/01 01:38:53;;;;;;;1.53;1.37;;;17.00;99.90;;;;;;5094384;28;20457;-57
2022/07/01 01:41:20;;;;;;;1.60;1.43;;;16.80;99.90;;;;;;5094369;28;20494;-57
2022/07/01 01:43:48;;;;;;;2.90;1.50;;;16.80;99.90;;;;;;5095148;28;20455;-56
2022/07/01 01:46:15;;;;;;;3.33;1.33;;;16.90;99.90;;;;;;5094317;28;20950;-56
2022/07/01 01:48:42;;;;;;;1.70;1.47;;;16.80;99.90;;;;;;5094617;28;20547;-57
2022/07/01 01:51:09;;;;;;;1.70;1.30;;;16.70;99.90;;;;;;5094270;28;20499;-56
2022/07/01 01:53:36;;;;;;;1.67;1.47;;;17.20;99.90;;;;;;5093946;28;20923;-56
2022/07/01 01:56:06;;;;;;;1.63;1.53;;;17.10;99.90;;;;;;5094165;28;20452;-56
2022/07/01 01:58:33;;;;;;;5.07;1.60;;;17.10;99.90;;;;;;5094414;28;20904;-56
2022/07/01 02:01:01;;;;;;;1.87;1.60;;;16.90;99.90;;;;;;5094437;28;20468;-56
2022/07/01 02:03:29;;;;;;;1.60;1.40;;;17.00;99.90;;;;;;5093936;28;21046;-56
2022/07/01 02:05:56;;;;;;;1.40;1.30;;;17.20;99.90;;;;;;5094204;28;20443;-56
2022/07/01 02:08:23;;;;;;;1.70;1.60;;;17.30;99.90;;;;;;5094069;28;20890;-56
2022/07/01 02:10:50;;;;;;;2.27;1.40;;;17.30;99.90;;;;;;5094076;28;20875;-56
2022/07/01 02:13:19;;;;;;;1.50;1.40;;;17.30;99.90;;;;;;5094137;28;20457;-57
2022/07/01 02:15:46;;;;;;;1.40;1.30;;;17.30;99.90;;;;;;5093741;28;20514;-56
2022/07/01 02:18:13;;;;;;;1.30;1.20;;;17.10;99.90;;;;;;5093756;28;20444;-57
2022/07/01 02:20:41;;;;;;;2.60;1.20;;;17.30;99.90;;;;;;5093957;28;20490;-56
2022/07/01 02:23:08;;;;;;;1.50;1.30;;;17.10;99.90;;;;;;5093724;28;20522;-57
2022/07/01 02:25:36;;;;;;;1.70;1.50;;;17.30;99.90;;;;;;5093612;28;20486;-56
2022/07/01 02:28:04;;;;;;;2.13;1.70;;;17.40;99.90;;;;;;5093553;28;20527;-56
2022/07/01 02:30:36;;;;;;;2.97;1.67;;;17.00;99.90;;;;;;5093869;28;20472;-56
2022/07/01 02:33:03;;;;;;;2.53;1.37;;;16.90;99.90;;;;;;5093998;28;20424;-57
2022/07/01 02:35:30;;;;;;;1.47;1.37;;;17.10;99.90;;;;;;5093706;28;20455;-56
2022/07/01 02:37:58;;;;;;;1.20;1.10;;;17.20;99.90;;;;;;5093398;28;20479;-56
2022/07/01 02:40:25;;;;;;;1.43;1.33;;;17.10;99.90;;;;;;5093730;28;20521;-56
2022/07/01 02:42:52;;;;;;;2.97;1.40;;;17.10;99.90;;;;;;5093669;28;20487;-56
2022/07/01 02:45:19;;;;;;;1.50;1.40;;;17.00;99.90;;;;;;5093607;28;20449;-56
2022/07/01 02:47:48;;;;;;;2.30;1.53;;;17.30;99.90;;;;;;5093702;28;20470;-56
2022/07/01 02:50:16;;;;;;;1.73;1.60;;;17.20;99.90;;;;;;5093516;28;20456;-58
2022/07/01 02:52:43;;;;;;;1.87;1.70;;;16.90;99.90;;;;;;5093229;28;20927;-57
2022/07/01 02:55:12;;;;;;;1.77;1.53;;;17.60;99.90;;;;;;5093331;28;20451;-56
2022/07/01 02:57:40;;;;;;;3.07;2.23;;;18.00;99.90;;;;;;5093487;28;20565;-57
2022/07/01 03:00:09;;;;;;;2.43;1.53;;;17.50;99.90;;;;;;5093324;28;20809;-57
2022/07/01 03:02:36;;;;;;;3.77;2.23;;;17.20;99.90;;;;;;5093108;28;20922;-57
2022/07/01 03:05:06;;;;;;;7.53;4.17;;;17.00;99.90;;;;;;5092996;28;20538;-57
2022/07/01 03:07:34;;;;;;;3.20;2.10;;;16.90;99.90;;;;;;5093055;28;20454;-57
2022/07/01 03:10:02;;;;;;;4.63;2.50;;;16.60;99.90;;;;;;5093310;28;20471;-57
2022/07/01 03:12:29;;;;;;;5.67;2.63;;;16.40;99.90;;;;;;5093400;28;20447;-57
2022/07/01 03:14:58;;;;;;;2.63;1.90;;;16.50;99.90;;;;;;5091810;28;20544;-57
2022/07/01 03:17:25;;;;;;;4.10;2.20;;;16.90;99.90;;;;;;5093232;28;20530;-57
2022/07/01 03:19:53;;;;;;;2.70;2.50;;;16.70;99.90;;;;;;5093015;28;20894;-56
2022/07/01 03:22:23;;;;;;;2.20;1.80;;;16.40;99.90;;;;;;5093165;28;20521;-57
2022/07/01 03:24:50;;;;;;;3.03;2.00;;;16.20;99.90;;;;;;5093165;28;20538;-57
2022/07/01 03:27:18;;;;;;;4.17;3.07;;;16.30;99.90;;;;;;5093250;28;20548;-56
2022/07/01 03:29:46;;;;;;;3.20;1.83;;;16.70;99.90;;;;;;5092767;28;20471;-57
2022/07/01 03:32:13;;;;;;;4.87;1.80;;;16.40;99.90;;;;;;5093162;28;20526;-57
2022/07/01 03:34:42;;;;;;;2.90;1.90;;;16.30;99.90;;;;;;5092908;28;20451;-57
2022/07/01 03:37:10;;;;;;;2.83;1.80;;;16.60;99.90;;;;;;5093080;28;20439;-57
2022/07/01 03:39:39;;;;;;;3.17;1.80;;;16.90;99.90;;;;;;5092656;28;20884;-57
2022/07/01 03:42:08;;;;;;;6.13;2.33;;;16.70;99.90;;;;;;5092948;28;20455;-57
2022/07/01 03:44:36;;;;;;;2.73;2.23;;;17.10;99.90;;;;;;5093194;28;20448;-57
2022/07/01 03:47:05;;;;;;;1.70;1.60;;;16.90;99.90;;;;;;5092696;28;20538;-57
2022/07/01 03:49:32;;;;;;;2.03;1.60;;;16.60;99.90;;;;;;5092589;28;20509;-57
2022/07/01 03:52:00;;;;;;;2.23;1.80;;;16.80;99.90;;;;;;5093340;28;20448;-57
2022/07/01 03:54:33;;;;;;;2.37;1.70;;;16.80;99.90;;;;;;5092960;28;20451;-57
2022/07/01 03:57:03;;;;;;;2.67;1.60;;;17.10;99.90;;;;;;5092969;28;20423;-57
2022/07/01 03:59:32;;;;;;;2.07;1.50;;;16.90;99.90;;;;;;5092954;28;20467;-57
2022/07/01 04:02:00;;;;;;;1.60;1.50;;;16.80;99.90;;;;;;5092707;28;20479;-57
2022/07/01 04:04:28;;;;;;;3.93;1.67;;;16.60;99.90;;;;;;5092654;28;20493;-57
2022/07/01 04:06:58;;;;;;;3.30;2.00;;;16.80;99.90;;;;;;5092754;28;20474;-57
2022/07/01 04:09:26;;;;;;;2.30;1.87;;;17.00;99.90;;;;;;5092570;28;20470;-57
2022/07/01 04:11:54;;;;;;;2.40;2.00;;;17.50;99.90;;;;;;5092666;28;20802;-57
2022/07/01 04:14:24;;;;;;;2.70;1.77;;;17.50;99.90;;;;;;5092261;28;20471;-57
2022/07/01 04:16:51;;;;;;;2.37;1.63;;;17.00;99.90;;;;;;5096497;28;20842;-57
2022/07/01 04:19:19;;;;;;;1.70;1.60;;;16.80;99.90;;;;;;5096178;28;20465;-57
2022/07/01 04:24:32;;;;;;;3.30;1.80;;;16.50;99.90;;;;;;5095908;28;20621;-57
2022/07/01 04:26:59;;;;;;;1.50;1.40;;;16.70;99.90;;;;;;5095999;28;20439;-57
2022/07/01 04:29:30;;;;;;;1.73;1.43;;;16.50;99.90;;;;;;5096131;28;20471;-57
2022/07/01 04:31:57;;;;;;;3.30;1.90;;;16.30;99.90;;;;;;5096086;28;20428;-57
2022/07/01 04:34:24;;;;;;;2.17;1.60;;;16.50;99.90;;;;;;5095939;28;20446;-57
2022/07/01 04:36:52;;;;;;;1.50;1.40;;;16.30;99.90;;;;;;5096068;28;20467;-57
2022/07/01 04:39:19;;;;;;;1.83;1.73;;;16.30;99.90;;;;;;5095802;28;20463;-57
2022/07/01 04:42:02;;;;;;;2.03;1.50;;;16.10;99.90;;;;;;5095758;28;20451;-57
2022/07/01 04:44:31;;;;;;;1.97;1.67;;;15.90;99.90;;;;;;5095721;28;20587;-57
2022/07/01 04:46:59;;;;;;;1.90;1.60;;;15.70;99.90;;;;;;5095616;28;20459;-57
2022/07/01 04:49:27;;;;;;;5.10;2.53;;;15.60;99.90;;;;;;5095628;28;20468;-57
2022/07/01 04:51:54;;;;;;;2.33;1.80;;;15.70;99.90;;;;;;5095472;28;20923;-57
2022/07/01 04:54:21;;;;;;;2.40;1.70;;;15.80;99.90;;;;;;5095514;28;20539;-57
2022/07/01 04:56:49;;;;;;;1.80;1.60;;;15.80;99.90;;;;;;5095514;28;20447;-57
2022/07/01 04:59:16;;;;;;;2.77;1.90;;;16.10;99.90;;;;;;5095507;28;20463;-57
2022/07/01 05:01:48;;;;;;;2.23;1.70;;;15.90;99.90;;;;;;5095287;28;20989;-56
2022/07/01 05:04:16;;;;;;;1.60;1.50;;;16.50;99.90;;;;;;5095014;28;20468;-56
2022/07/01 05:06:43;;;;;;;1.97;1.80;;;16.30;99.90;;;;;;5095088;28;20542;-57
2022/07/01 05:09:11;;;;;;;4.40;1.90;;;16.40;99.90;;;;;;5095100;28;20454;-57
2022/07/01 05:11:38;;;;;;;2.20;1.70;;;16.10;99.90;;;;;;5095277;28;20447;-57
2022/07/01 05:14:06;;;;;;;2.30;1.63;;;16.30;99.90;;;;;;5094989;28;20475;-57
2022/07/01 05:16:33;;;;;;;2.63;1.90;;;15.90;99.90;;;;;;5095023;28;20510;-56
2022/07/01 05:21:56;;;;;;;2.70;2.03;;;15.60;99.90;;;;;;5094986;28;20419;-56
2022/07/01 05:24:24;;;;;;;3.10;2.07;;;15.80;99.90;;;;;;5094651;28;20463;-57
2022/07/01 05:26:51;;;;;;;2.17;1.93;;;15.60;99.90;;;;;;5093543;28;20450;-56
2022/07/01 05:29:19;;;;;;;4.03;2.17;;;15.50;99.90;;;;;;5094821;28;20503;-56
2022/07/01 05:31:46;;;;;;;2.40;1.97;;;15.50;99.90;;;;;;5094429;28;20943;-56
2022/07/01 05:34:15;;;;;;;2.47;1.93;;;15.70;99.90;;;;;;5094279;28;20562;-56
2022/07/01 05:36:42;;;;;;;3.73;2.13;;;15.70;99.90;;;;;;5094638;28;20532;-56
2022/07/01 05:39:09;;;;;;;2.40;2.17;;;15.50;99.90;;;;;;5094248;28;20538;-56
2022/07/01 05:41:36;;;;;;;3.33;2.10;;;15.50;99.90;;;;;;5094386;28;20443;-57
2022/07/01 05:44:04;;;;;;;3.27;2.40;;;15.60;99.90;;;;;;5094145;28;20555;-56
2022/07/01 05:46:31;;;;;;;3.57;2.33;;;15.70;99.90;;;;;;5094578;28;20450;-56
2022/07/01 05:48:58;;;;;;;3.93;2.57;;;15.70;99.90;;;;;;5094414;28;20486;-57
2022/07/01 05:51:27;;;;;;;5.30;2.60;;;15.70;99.90;;;;;;5093784;28;20534;-56
2022/07/01 05:53:56;;;;;;;2.03;1.90;;;15.70;99.90;;;;;;5094410;28;20523;-57
2022/07/01 05:56:23;;;;;;;3.60;2.50;;;16.20;99.90;;;;;;5093940;28;20783;-56
2022/07/01 05:58:50;;;;;;;2.97;2.37;;;16.10;99.90;;;;;;5094367;28;21075;-56
2022/07/01 06:01:17;;;;;;;3.47;2.50;;;16.20;99.90;;;;;;5094403;28;20543;-56
2022/07/01 06:03:45;;;;;;;2.70;2.50;;;15.90;99.90;;;;;;5094154;28;20566;-56
2022/07/01 06:06:12;;;;;;;3.67;2.90;;;15.90;99.90;;;;;;5094028;28;20925;-57
2022/07/01 06:08:40;;;;;;;7.00;2.80;;;15.90;99.90;;;;;;5094162;28;20447;-56
2022/07/01 06:11:08;;;;;;;3.73;2.77;;;16.10;99.90;;;;;;5093951;28;20503;-56
2022/07/01 06:13:35;;;;;;;3.10;2.80;;;16.30;99.90;;;;;;5093694;28;20443;-57
2022/07/01 06:16:02;;;;;;;4.43;2.60;;;16.00;99.90;;;;;;5093708;28;20504;-56
2022/07/01 06:18:30;;;;;;;2.70;2.50;;;15.90;99.90;;;;;;5093681;28;20443;-56
2022/07/01 06:20:57;;;;;;;3.73;2.73;;;15.80;99.90;;;;;;5093708;28;20554;-56
2022/07/01 06:23:24;;;;;;;4.07;2.80;;;15.90;99.90;;;;;;5093620;28;20562;-56
2022/07/01 06:25:53;;;;;;;2.80;2.60;;;16.40;99.90;;;;;;5093265;28;20451;-56
2022/07/01 06:28:20;;;;;;;3.50;3.20;;;16.20;99.90;;;;;;5093323;28;20451;-56
2022/07/01 06:30:47;;;;;;;4.70;3.10;;;16.10;99.90;;;;;;5093683;28;20506;-56
2022/07/01 06:33:14;;;;;;;3.53;3.07;;;16.00;99.90;;;;;;5093683;28;20439;-56
2022/07/01 06:35:42;;;;;;;3.50;2.60;;;16.30;99.90;;;;;;5093542;28;20448;-56
2022/07/01 06:38:09;;;;;;;2.50;2.30;;;16.50;99.90;;;;;;5092849;28;20490;-56
2022/07/01 06:40:36;;;;;;;4.20;2.10;;;16.30;99.90;;;;;;5093114;28;20871;-56
2022/07/01 06:43:05;;;;;;;2.60;2.40;;;16.60;99.90;;;;;;5093324;28;20499;-56
2022/07/01 06:45:32;;;;;;;2.60;2.40;;;16.50;99.90;;;;;;5092981;28;20957;-56
2022/07/01 06:47:59;;;;;;;5.37;2.73;;;16.30;99.90;;;;;;5092831;28;20450;-57
2022/07/01 06:50:27;;;;;;;3.97;3.53;;;16.40;99.90;;;;;;5092992;28;20467;-57
2022/07/01 06:52:54;;;;;;;3.43;3.13;;;16.50;99.90;;;;;;5092537;28;20443;-56
2022/07/01 06:55:21;;;;;;;3.70;3.03;;;16.60;99.90;;;;;;5093030;28;20436;-56
2022/07/01 06:57:48;;;;;;;2.63;2.40;;;16.80;99.90;;;;;;5092891;28;20444;-56
2022/07/01 07:00:17;;;;;;;2.40;2.20;;;16.70;99.90;;;;;;5092238;28;20471;-56
2022/07/01 07:02:45;;;;;;;4.23;2.87;;;16.80;99.90;;;;;;5092509;28;20857;-56
2022/07/01 07:05:12;;;;;;;2.67;2.40;;;16.50;99.90;;;;;;5092547;28;20474;-56
2022/07/01 07:07:40;;;;;;;3.23;2.40;;;16.30;99.90;;;;;;5092822;28;20496;-56
2022/07/01 07:10:08;;;;;;;2.77;2.50;;;16.20;99.90;;;;;;5092639;28;20467;-57
2022/07/01 07:12:35;;;;;;;4.50;2.30;;;16.30;99.90;;;;;;5093005;28;20456;-57
2022/07/01 07:15:02;;;;;;;3.07;2.80;;;16.20;99.90;;;;;;5092268;28;20475;-56
2022/07/01 07:17:32;;;;;;;4.00;2.40;;;16.10;99.90;;;;;;5092596;28;20539;-57
2022/07/01 07:19:59;;;;;;;4.67;2.53;;;15.90;99.90;;;;;;5092248;28;21014;-56
2022/07/01 07:22:29;;;;;;;2.67;2.47;;;15.90;99.90;;;;;;5092706;28;20564;-57
2022/07/01 07:24:56;;;;;;;4.20;2.53;;;16.10;99.90;;;;;;5093219;28;20547;-57
2022/07/01 07:27:23;;;;;;;3.97;2.90;;;16.30;99.90;;;;;;5092532;28;20475;-57
2022/07/01 07:29:51;;;;;;;3.07;2.20;;;16.70;99.90;;;;;;5092713;28;20463;-58
2022/07/01 07:32:18;;;;;;;4.00;2.50;;;16.50;99.90;;;;;;5092525;28;20481;-56
2022/07/01 07:34:47;;;;;;;3.50;2.57;;;16.90;99.90;;;;;;5092498;28;20446;-57
2022/07/01 07:37:14;;;;;;;2.53;2.30;;;16.70;99.90;;;;;;5092389;28;20444;-57
2022/07/01 07:39:41;;;;;;;3.77;3.47;;;16.80;99.90;;;;;;5092108;28;20657;-57
2022/07/01 07:42:08;;;;;;;2.20;1.90;;;16.60;99.90;;;;;;5092385;28;20451;-58
2022/07/01 07:44:35;;;;;;;5.10;3.13;;;16.70;99.90;;;;;;5092279;28;20456;-57
2022/07/01 07:47:03;;;;;;;3.67;3.00;;;16.50;99.90;;;;;;5092667;28;20479;-57
2022/07/01 07:49:30;;;;;;;2.80;2.60;;;16.40;99.90;;;;;;5092554;28;20554;-58
2022/07/01 07:51:59;;;;;;;3.90;2.40;;;16.40;99.90;;;;;;5096076;28;20754;-57
2022/07/01 07:54:26;;;;;;;4.57;2.77;;;16.10;99.90;;;;;;5096077;28;20439;-57
2022/07/01 07:56:53;;;;;;;2.70;2.50;;;16.20;99.90;;;;;;5096590;28;20479;-58
2022/07/01 07:59:20;;;;;;;3.23;2.30;;;16.40;99.90;;;;;;5096133;28;20529;-57
2022/07/01 08:01:47;;;;;;;4.80;2.50;;;16.40;99.90;;;;;;5096332;28;20482;-58
2022/07/01 08:04:15;;;;;;;2.83;2.63;;;16.30;99.90;;;;;;5095957;28;20566;-57
2022/07/01 08:06:42;;;;;;;2.73;2.53;;;16.40;99.90;;;;;;5096060;28;20934;-57
2022/07/01 08:09:10;;;;;;;2.27;2.07;;;16.10;99.90;;;;;;5095842;28;20542;-57
2022/07/01 08:11:38;;;;;;;2.53;2.20;;;16.40;99.90;;;;;;5095875;28;20443;-58
2022/07/01 08:14:05;;;;;;;4.57;2.30;;;16.50;99.90;;;;;;5096051;28;20479;-57
2022/07/01 08:16:32;;;;;;;2.97;2.40;;;16.50;99.90;;;;;;5095862;28;20453;-57
2022/07/01 08:19:00;;;;;;;2.43;2.20;;;16.50;99.90;;;;;;5096147;28;20539;-57
2022/07/01 08:21:27;;;;;;;3.00;2.50;;;16.60;99.90;;;;;;5096211;28;20538;-57
2022/07/01 08:23:54;;;;;;;2.87;2.40;;;16.50;99.90;;;;;;5095671;28;21011;-57
2022/07/01 08:26:23;;;;;;;4.80;2.30;;;16.90;99.90;;;;;;5095827;28;20436;-57
2022/07/01 08:28:50;;;;;;;4.47;2.30;;;17.20;99.90;;;;;;5095940;28;20458;-57
2022/07/01 08:31:17;;;;;;;3.00;2.70;;;16.80;99.90;;;;;;5095695;28;20471;-57
2022/07/01 08:33:44;;;;;;;4.03;2.93;;;16.80;99.90;;;;;;5095358;28;20530;-57
2022/07/01 08:36:13;;;;;;;3.20;2.47;;;16.40;99.90;;;;;;5095090;28;20950;-57
2022/07/01 08:38:41;;;;;;;6.43;2.90;;;16.90;99.90;;;;;;5095322;28;20454;-57
2022/07/01 08:41:09;;;;;;;9.33;2.20;;;16.80;99.90;;;;;;5095163;28;20977;-57
2022/07/01 08:43:38;;;;;;;4.20;2.90;;;16.60;99.90;;;;;;5095715;28;20456;-57
2022/07/01 08:46:05;;;;;;;2.93;2.50;;;16.50;99.90;;;;;;5095375;28;20508;-57
2022/07/01 08:48:32;;;;;;;3.40;2.80;;;16.60;99.90;;;;;;5095045;28;20443;-57
2022/07/01 08:51:03;;;;;;;2.70;2.30;;;16.50;99.90;;;;;;5095503;28;20887;-57
2022/07/01 08:53:31;;;;;;;4.80;2.07;;;16.50;99.90;;;;;;5095491;28;20428;-57
2022/07/01 08:58:45;;;;;;;2.60;2.40;;;16.50;99.90;;;;;;5094967;28;20446;-57
2022/07/01 09:01:14;;;;;;;2.40;2.13;;;16.40;99.90;;;;;;5094458;28;20844;-57
2022/07/01 09:03:41;;;;;;;2.63;2.10;;;17.00;99.90;;;;;;5095180;28;20604;-57
2022/07/01 09:06:14;;;;;;;2.40;2.20;;;16.80;99.90;;;;;;5094690;28;20471;-57
2022/07/01 09:08:41;;;;;;;3.00;2.70;;;16.70;99.90;;;;;;5094819;28;20436;-57
2022/07/01 09:11:13;;;;;;;2.33;2.13;;;16.60;99.90;;;;;;5095075;28;20550;-57
2022/07/01 09:13:41;;;;;;;2.40;2.20;;;16.80;99.90;;;;;;5095235;28;20508;-57
2022/07/01 09:16:14;;;;;;;3.70;2.60;;;16.70;99.90;;;;;;5095074;28;20443;-56
2022/07/01 09:18:41;;;;;;;2.57;2.13;;;16.80;99.90;;;;;;5094835;28;20432;-56
2022/07/01 09:21:17;;;;;;;3.63;2.57;;;16.90;99.90;;;;;;5094452;28;20554;-57
2022/07/01 09:23:44;;;;;;;3.10;2.50;;;17.00;99.90;;;;;;5094429;28;20520;-56
2022/07/01 09:26:21;;;;;;;3.37;2.90;;;16.90;99.90;;;;;;5094518;28;20466;-56
2022/07/01 09:28:55;;;;;;;2.93;2.23;;;17.10;99.90;;;;;;5094585;28;20792;-57
2022/07/01 09:31:24;;;;;;;3.37;2.87;;;17.20;99.90;;;;;;5094406;28;20438;-57
2022/07/01 09:34:04;;;;;;;3.63;3.10;;;17.40;99.90;;;;;;5094192;28;20455;-57
2022/07/01 09:36:32;;;;;;;2.60;2.40;;;17.10;99.90;;;;;;5094063;28;20519;-57
2022/07/01 09:39:04;;;;;;;2.20;2.00;;;16.90;99.90;;;;;;5094074;28;20448;-57
2022/07/01 09:41:37;;;;;;;2.50;2.03;;;17.10;99.90;;;;;;5094362;28;20573;-57
2022/07/01 09:44:07;;;;;;;2.60;2.40;;;16.70;99.90;;;;;;5093897;28;20428;-56
2022/07/01 09:46:36;;;;;;;4.30;2.97;;;16.50;99.90;;;;;;5094065;28;20458;-57
2022/07/01 09:49:04;;;;;;;1.90;1.80;;;16.40;99.90;;;;;;5094195;28;20451;-57
2022/07/01 09:51:31;;;;;;;3.07;2.23;;;16.80;99.90;;;;;;5094020;28;20535;-57
2022/07/01 09:53:59;;;;;;;2.37;2.17;;;17.10;99.90;;;;;;5093957;28;20487;-57
2022/07/01 09:56:26;;;;;;;2.97;2.77;;;17.50;99.90;;;;;;5093596;28;20505;-56
2022/07/01 09:58:53;;;;;;;2.70;1.70;;;17.30;99.90;;;;;;5093659;28;20531;-56
2022/07/01 10:01:21;;;;;;;2.63;2.37;;;17.50;99.90;;;;;;5094033;28;20443;-56
2022/07/01 10:03:51;;;;;;;2.13;1.90;;;17.40;99.90;;;;;;5093627;28;20438;-56
2022/07/01 10:06:47;;;;;;;2.70;2.17;;;17.50;99.90;;;;;;5093256;28;20574;-56
2022/07/01 10:09:32;;;;;;;2.47;1.50;;;17.40;99.90;;;;;;5093620;28;21008;-56
2022/07/01 10:12:25;;;;;;;4.43;2.43;;;17.10;99.90;;;;;;5093455;28;20451;-56
2022/07/01 10:14:56;;;;;;;6.77;2.20;;;17.10;99.90;;;;;;5093296;28;20550;-56
2022/07/01 10:17:31;;;;;;;2.80;2.40;;;16.90;99.90;;;;;;5093811;28;20443;-57
2022/07/01 10:20:11;;;;;;;2.10;1.90;;;16.70;99.90;;;;;;5093321;28;21037;-56
2022/07/01 10:22:39;;;;;;;3.20;2.17;;;16.80;99.90;;;;;;5093846;28;20464;-56
2022/07/01 10:25:32;;;;;;;2.13;1.93;;;16.80;99.90;;;;;;5093338;28;20570;-56
2022/07/01 10:28:22;;;;;;;2.37;1.97;;;17.20;99.90;;;;;;5093767;28;20526;-56
2022/07/01 10:31:01;;;;;;;4.87;2.27;;;17.40;99.90;;;;;;5093430;28;20990;-57
2022/07/01 10:33:34;;;;;;;3.87;2.10;;;17.50;99.90;;;;;;5093436;28;20442;-56
2022/07/01 10:36:15;;;;;;;4.60;2.00;;;17.70;99.90;;;;;;5093297;28;20450;-57
2022/07/01 10:39:22;;;;;;;3.83;1.87;;;17.70;99.90;;;;;;5093161;28;20432;-57
2022/07/01 10:42:05;;;;;;;4.30;1.90;;;17.70;99.90;;;;;;5093096;28;20459;-57
2022/07/01 10:44:36;;;;;;;2.20;2.00;;;18.40;99.90;;;;;;5092787;28;20977;-56
2022/07/01 10:47:06;;;;;;;3.03;2.00;;;18.20;99.90;;;;;;5093047;28;20894;-57
2022/07/01 10:49:53;;;;;;;3.43;1.97;;;18.20;99.90;;;;;;5093064;28;20945;-57
2022/07/01 10:52:22;;;;;;;3.20;1.90;;;18.70;99.90;;;;;;5092706;28;20478;-57
2022/07/01 10:54:53;;;;;;;2.83;2.33;;;19.10;99.90;;;;;;5091851;28;20455;-57
2022/07/01 10:57:30;;;;;;;2.60;2.30;;;19.20;99.90;;;;;;5091511;28;20463;-57
2022/07/01 11:00:13;;;;;;;2.30;2.10;;;18.80;99.90;;;;;;5092687;28;20829;-57
2022/07/01 11:02:41;;;;;;;1.80;1.70;;;18.60;99.90;;;;;;5092229;28;20454;-57
2022/07/01 11:05:11;;;;;;;2.67;1.80;;;18.70;99.90;;;;;;5092384;28;20970;-57
2022/07/01 11:07:42;;;;;;;2.20;2.00;;;18.90;99.90;;;;;;5092434;28;20428;-57
2022/07/01 11:10:11;;;;;;;2.70;2.20;;;19.30;99.90;;;;;;5092790;28;20466;-57
2022/07/01 11:12:39;;;;;;;2.20;2.00;;;19.10;99.90;;;;;;5092617;28;20490;-57
2022/07/01 11:15:10;;;;;;;3.30;2.13;;;19.30;99.90;;;;;;5092341;28;20974;-57
2022/07/01 11:17:43;;;;;;;2.93;2.53;;;19.10;99.90;;;;;;5092772;28;20432;-57
2022/07/01 11:20:11;;;;;;;2.27;2.07;;;18.80;99.90;;;;;;5093209;28;20475;-57
2022/07/01 11:22:40;;;;;;;3.23;2.00;;;18.80;99.90;;;;;;5092769;28;20443;-57
2022/07/01 11:25:09;;;;;;;7.30;2.40;;;18.90;99.90;;;;;;5093431;28;20479;-57
2022/07/01 11:27:37;;;;;;;2.63;1.90;;;18.30;99.90;;;;;;5096471;28;20450;-57
2022/07/01 11:30:08;;;;;;;2.30;2.00;;;18.60;99.90;;;;;;5096953;28;20483;-57
2022/07/01 11:32:37;;;;;;;3.30;1.90;;;18.90;99.90;;;;;;5097099;28;20459;-57
2022/07/01 11:39:21;;;;;;;2.20;1.90;;;18.40;99.90;;;;;;5096653;28;20439;-58
2022/07/01 11:40:50;;;;;;;7.23;2.27;;;19.20;99.90;;;;;;5096692;28;20455;-60
2022/07/01 11:43:22;;;;;;;2.00;1.80;;;20.20;99.90;;;;;;5097016;28;20498;-62
2022/07/01 11:45:49;;;;;;;2.37;2.17;;;21.00;99.90;;;;;;5096701;28;20837;-63
2022/07/01 11:48:32;;;;;;;2.30;2.00;;;20.90;99.90;;;;;;5096434;28;20443;-63
2022/07/01 11:51:00;;;;;;;1.80;1.70;;;20.80;99.90;;;;;;5105004;28;20470;-55
2022/07/01 11:53:29;;;;;;;3.50;1.80;;;21.00;99.90;;;;;;5111510;28;20446;-63
2022/07/01 11:55:56;;;;;;;3.07;2.23;;;21.50;99.90;;;;;;5096535;28;20471;-60
2022/07/01 11:58:24;;;;;;;2.37;1.70;;;22.20;99.90;;;;;;5113590;27;20450;-56
2022/07/01 12:00:51;;;;;;;3.07;2.13;;;22.10;99.90;;;;;;5122328;27;20490;-61
2022/07/01 12:03:31;;;;;;;7.37;1.80;;;21.80;99.90;;;;;;5106492;27;20441;-59
2022/07/01 12:05:59;;;;;;;1.93;1.60;;;21.50;99.90;;;;;;5095973;28;21071;-56
2022/07/01 12:08:26;;;;;;;2.20;2.00;;;21.10;99.90;;;;;;5101110;27;20443;-59
2022/07/01 12:10:59;;;;;;;3.60;1.60;;;21.40;99.90;;;;;;5113594;27;20546;-59
2022/07/01 12:13:27;;;;;;;2.73;2.10;;;21.20;99.90;;;;;;5119607;27;20474;-58
2022/07/01 12:15:54;;;;;;;3.77;1.90;;;21.50;99.90;;;;;;5110575;28;20829;-60
2022/07/01 12:18:22;;;;;;;3.20;1.87;;;21.70;99.90;;;;;;5122446;27;20510;-65
2022/07/01 12:20:51;;;;;;;2.10;1.90;;;21.30;99.90;;;;;;5106631;27;20805;-63
2022/07/01 12:23:18;;;;;;;4.20;1.73;;;21.50;99.90;;;;;;5099517;27;20517;-58
2022/07/01 12:25:54;;;;;;;4.83;1.90;;;21.90;99.90;;;;;;5098956;28;20475;-58
2022/07/01 12:28:30;;;;;;;4.23;2.13;;;22.10;99.90;;;;;;5111737;27;20448;-57
2022/07/01 12:31:06;;;;;;;2.57;1.83;;;22.20;99.90;;;;;;5111037;27;21027;-53
2022/07/01 12:33:35;;;;;;;2.60;1.93;;;22.20;99.90;;;;;;5094321;28;20452;-58
2022/07/01 12:36:04;;;;;;;5.27;1.93;;;22.00;99.90;;;;;;5107461;28;20453;-56
2022/07/01 12:38:31;;;;;;;2.53;1.70;;;22.00;99.90;;;;;;5107809;27;20455;-56
2022/07/01 12:40:59;;;;;;;8.30;2.97;;;21.70;99.90;;;;;;5103231;27;21002;-54
2022/07/01 12:43:29;;;;;;;8.60;4.37;;;21.50;99.90;;;;;;5110630;28;20969;-61
2022/07/01 12:45:59;;;;;;;52.60;21.57;;;21.10;99.90;;;;;;5107278;28;20472;-61
2022/07/01 12:48:28;;;;;;;24.83;9.53;;;21.70;99.90;;;;;;5110601;28;20545;-61
2022/07/01 12:50:57;;;;;;;21.67;9.00;;;21.80;99.90;;;;;;5114638;27;20486;-56
2022/07/01 12:53:26;;;;;;;22.30;10.20;;;21.80;99.90;;;;;;5109110;27;20463;-55
2022/07/01 12:55:54;;;;;;;29.53;15.17;;;21.80;99.90;;;;;;5113391;27;20470;-57
2022/07/01 12:58:23;;;;;;;25.43;13.40;;;21.80;99.90;;;;;;5108552;28;20590;-60
2022/07/01 13:00:52;;;;;;;18.87;9.30;;;21.80;99.90;;;;;;5105401;27;20897;-54
2022/07/01 13:03:22;;;;;;;11.27;4.73;;;21.50;99.90;;;;;;5103577;28;20497;-50
2022/07/01 13:05:51;;;;;;;4.97;2.90;;;21.90;99.90;;;;;;5099225;28;20474;-55